地図

経路データ

SID SEASON NUMBER BASIN SUBBASIN NAME ISO_TIME NATURE LAT LON WMO_WIND WMO_PRES WMO_AGENCY TRACK_TYPE DIST2LAND LANDFALL IFLAG USA_AGENCY USA_ATCF_ID USA_LAT USA_LON USA_RECORD USA_STATUS USA_WIND USA_PRES USA_SSHS USA_R34_NE USA_R34_SE USA_R34_SW USA_R34_NW USA_R50_NE USA_R50_SE USA_R50_SW USA_R50_NW USA_R64_NE USA_R64_SE USA_R64_SW USA_R64_NW USA_POCI USA_ROCI USA_RMW USA_EYE TOKYO_LAT TOKYO_LON TOKYO_GRADE TOKYO_WIND TOKYO_PRES TOKYO_R50_DIR TOKYO_R50_LONG TOKYO_R50_SHORT TOKYO_R30_DIR TOKYO_R30_LONG TOKYO_R30_SHORT TOKYO_LAND CMA_LAT CMA_LON CMA_CAT CMA_WIND CMA_PRES HKO_LAT HKO_LON HKO_CAT HKO_WIND HKO_PRES NEWDELHI_LAT NEWDELHI_LON NEWDELHI_GRADE NEWDELHI_WIND NEWDELHI_PRES NEWDELHI_CI NEWDELHI_DP NEWDELHI_POCI REUNION_LAT REUNION_LON REUNION_TYPE REUNION_WIND REUNION_PRES REUNION_TNUM REUNION_CI REUNION_RMW REUNION_R34_NE REUNION_R34_SE REUNION_R34_SW REUNION_R34_NW REUNION_R50_NE REUNION_R50_SE REUNION_R50_SW REUNION_R50_NW REUNION_R64_NE REUNION_R64_SE REUNION_R64_SW REUNION_R64_NW BOM_LAT BOM_LON BOM_TYPE BOM_WIND BOM_PRES BOM_TNUM BOM_CI BOM_RMW BOM_R34_NE BOM_R34_SE BOM_R34_SW BOM_R34_NW BOM_R50_NE BOM_R50_SE BOM_R50_SW BOM_R50_NW BOM_R64_NE BOM_R64_SE BOM_R64_SW BOM_R64_NW BOM_ROCI BOM_POCI BOM_EYE BOM_POS_METHOD BOM_PRES_METHOD NADI_LAT NADI_LON NADI_CAT NADI_WIND NADI_PRES WELLINGTON_LAT WELLINGTON_LON WELLINGTON_WIND WELLINGTON_PRES DS824_LAT DS824_LON DS824_STAGE DS824_WIND DS824_PRES TD9636_LAT TD9636_LON TD9636_STAGE TD9636_WIND TD9636_PRES TD9635_LAT TD9635_LON TD9635_WIND TD9635_PRES TD9635_ROCI NEUMANN_LAT NEUMANN_LON NEUMANN_CLASS NEUMANN_WIND NEUMANN_PRES MLC_LAT MLC_LON MLC_CLASS MLC_WIND MLC_PRES USA_GUST BOM_GUST BOM_GUST_PER REUNION_GUST REUNION_GUST_PER USA_SEAHGT USA_SEARAD_NE USA_SEARAD_SE USA_SEARAD_SW USA_SEARAD_NW STORM_SPEED STORM_DIR
1965005S11069 1965 2 SI MM FREDA 1965-01-05 06:00:00 TS -10.9400 69.0200 reunion main 1588 1573 O____O___OO_O_ jtwc_sh SH141965 -10.9000 68.9000 -1 -11.0000 69.2000 2 9.90000 -10.9000 68.9000 TC 25 -10.9000 68.9000 7 -11.0000 69.2000 TC 30 5 164
1965005S11069 1965 2 SI MM FREDA 1965-01-05 09:00:00 TS -11.1589 69.0732 main 1574 1560 P____P___PP_P_ SH141965 -11.0925 69.1124 -1 -11.2500 69.0376 2 -11.0925 69.1124 TC 25 -11.1095 69.0659 7 -11.2500 69.0376 TC 30 5 166
1965005S11069 1965 2 SI MM FREDA 1965-01-05 12:00:00 TS -11.3850 69.1271 reunion main 1560 1552 O____O___OP_O_ jtwc_sh SH141965 -11.3000 69.3000 -1 -11.5000 68.9000 99 9.90000 -11.3000 69.3000 TC 25 -11.3252 69.2355 7 -11.5000 68.9000 TC 30 5 167
1965005S11069 1965 2 SI MM FREDA 1965-01-05 15:00:00 TS -11.6246 69.1825 main 1554 1533 P____P___PP_P_ SH141965 -11.5350 69.4501 -1 -11.7500 68.7999 99 -11.5350 69.4501 TC 30 -11.5533 69.4123 7 -11.7500 68.7999 TC 32 5 167
1965005S11069 1965 2 SI MM FREDA 1965-01-05 18:00:00 TS -11.8800 69.2400 reunion main 1533 1528 O____O___OO_O_ jtwc_sh SH141965 -11.8000 69.6000 -1 -12.0000 68.7000 99 9.90000 -11.8000 69.6000 TC 35 -11.8000 69.6000 2 -12.0000 68.7000 TC 35 5 167
1965005S11069 1965 2 SI MM FREDA 1965-01-05 21:00:00 TS -12.1484 69.3104 main 1528 1507 P____P___PP_P_ SH141965 -12.0850 69.8299 -1 -12.2500 68.5500 99 -12.0850 69.8299 TC 35 -12.0716 69.7922 2 -12.2500 68.5500 TC 35 6 169
1965005S11069 1965 2 SI MM FREDA 1965-01-06 00:00:00 TS -12.4349 69.3487 reunion main 1507 1488 O____O___OP_O_ jtwc_sh SH141965 -12.4000 70.0000 -1 -12.5000 68.4000 99 9.90000 -12.4000 70.0000 TC 35 -12.3745 69.9434 2 -12.5000 68.4000 TC 35 6 176
1965005S11069 1965 2 SI MM FREDA 1965-01-06 03:00:00 TS -12.7189 69.3444 main 1488 1460 P____P___PP_P_ SH141965 -12.7273 70.0473 -1 -12.7125 68.3148 99 -12.7273 70.0473 TC 35 -12.7151 69.9980 2 -12.7125 68.3148 TC 37 6 192
1965005S11069 1965 2 SI MM FREDA 1965-01-06 06:00:00 TS -13.0600 69.2200 reunion main 1453 1401 O____O___OO_O_ jtwc_sh SH141965 -13.1000 69.9000 -1 -13.0000 68.2000 3 9.90000 -13.1000 69.9000 TC 35 -13.1000 69.9000 2 -13.0000 68.2000 TC 40 9 208
1965005S11069 1965 2 SI MM FREDA 1965-01-06 09:00:00 TS -13.4987 68.9166 main 1401 1335 P____P___PP_P_ SH141965 -13.5276 69.5176 -1 -13.4550 67.9800 3 -13.5276 69.5176 TC 35 -13.5283 69.5879 2 -13.4550 67.9800 TC 42 12 217
1965005S11069 1965 2 SI MM FREDA 1965-01-06 12:00:00 TS -13.9996 68.5047 reunion main 1335 1269 O____O___OP_O_ jtwc_sh SH141965 -14.0000 69.0000 -1 -14.0000 67.7000 99 9.90000 -14.0000 69.0000 TC 35 -13.9982 69.1233 2 -14.0000 67.7000 TC 45 13 219
1965005S11069 1965 2 SI MM FREDA 1965-01-06 15:00:00 TS -14.5008 68.0832 main 1269 1203 P____P___PP_P_ SH141965 -14.5000 68.5000 -1 -14.5049 67.4221 99 -14.5000 68.5000 TC 35 -14.4940 68.5719 2 -14.5049 67.4221 TC 47 13 219
1965005S11069 1965 2 SI MM FREDA 1965-01-06 18:00:00 TS -15.0400 67.6400 reunion main 1194 1124 O____O___OO_O_ jtwc_sh SH141965 -15.0000 68.0000 -1 -15.1000 67.1000 99 9.90000 -15.0000 68.0000 TC 35 -15.0000 68.0000 2 -15.1000 67.1000 TC 50 14 216
1965005S11069 1965 2 SI MM FREDA 1965-01-06 21:00:00 TS -15.6271 67.2217 main 1124 1055 P____P___PP_P_ SH141965 -15.4423 67.5570 -1 -15.9000 66.7227 99 -15.4423 67.5570 TC 35 -15.4512 67.5492 2 -15.9000 66.7227 TC 52 15 215
1965005S11069 1965 2 SI MM FREDA 1965-01-07 00:00:00 TS -16.2232 66.7772 reunion main 1055 982 O____O___OP_O_ jtwc_sh SH141965 -15.9000 67.1000 -1 -16.7000 66.3000 99 9.90000 -15.9000 67.1000 TC 35 -15.9160 67.0858 2 -16.7000 66.3000 TC 55 15 218
1965005S11069 1965 2 SI MM FREDA 1965-01-07 03:00:00 TS -16.7674 66.2995 main 977 906 P____P___PP_P_ SH141965 -16.4048 66.5869 -1 -17.3023 65.8721 99 -16.4048 66.5869 TC 35 -16.4228 66.5796 2 -17.3023 65.8721 TC 57 15 222
1965005S11069 1965 2 SI MM FREDA 1965-01-07 06:00:00 TS -17.3200 65.7600 reunion main 906 822 O____O___OO_O_ jtwc_sh SH141965 -17.0000 66.0000 -1 -17.8000 65.4000 3 9.90000 -17.0000 66.0000 TC 35 -17.0000 66.0000 2 -17.8000 65.4000 TC 60 16 223
1965005S11069 1965 2 SI MM FREDA 1965-01-07 09:00:00 TS -17.9445 65.1553 main 822 730 P____P___PP_P_ SH141965 -17.7197 65.3446 -1 -18.3022 64.8875 3 -17.7197 65.3446 TC 35 -17.6784 65.3123 2 -18.3022 64.8875 TC 62 18 225
1965005S11069 1965 2 SI MM FREDA 1965-01-07 12:00:00 TS -18.5651 64.4694 reunion main 727 632 O____O___OP_O_ jtwc_sh SH141965 -18.5000 64.6000 -1 -18.7000 64.3000 4 9.90000 -18.5000 64.6000 TC 35 -18.4254 64.5472 2 -18.7000 64.3000 TC 65 18 230
1965005S11069 1965 2 SI MM FREDA 1965-01-07 15:00:00 TS -19.1078 63.7042 main 632 538 P____P___PP_P_ SH141965 -19.2499 63.7720 -1 -18.9150 63.6217 4 -19.2499 63.7720 TC 35 -19.2095 63.7333 2 -18.9150 63.6217 TC 67 18 234
1965005S11069 1965 2 SI MM FREDA 1965-01-07 18:00:00 TS -19.6400 62.9000 reunion main 538 448 O____O___OO_O_ jtwc_sh SH141965 -20.0000 62.9000 -1 -19.1000 62.9000 99 9.90000 -20.0000 62.9000 TC 35 -20.0000 62.9000 2 -19.1000 62.9000 TC 70 19 233
1965005S11069 1965 2 SI MM FREDA 1965-01-07 21:00:00 TS -20.2326 62.1021 main 448 377 P____P___PP_P_ SH141965 -20.7497 62.0418 -1 -19.4423 62.1927 99 -20.7497 62.0418 TC 35 -20.7789 62.0417 2 -19.4423 62.1927 TC 70 19 231
1965005S11069 1965 2 SI MM FREDA 1965-01-08 00:00:00 TS -20.8307 61.3154 reunion main 368 311 O____O___OP_O_ jtwc_sh SH141965 -21.5000 61.2000 -1 -19.8000 61.5000 99 9.90000 -21.5000 61.2000 TC 35 -21.5534 61.1769 2 -19.8000 61.5000 TC 70 19 232
1965005S11069 1965 2 SI MM FREDA 1965-01-08 03:00:00 TS -21.3741 60.5482 main 306 276 P____P___PP_P_ SH141965 -22.2724 60.3624 -1 -20.0123 60.8340 99 -22.2724 60.3624 TC 50 -22.3011 60.3482 2 -20.0123 60.8340 TC 67 18 232
1965005S11069 1965 2 SI MM FREDA 1965-01-08 06:00:00 TS -21.9200 59.8400 reunion main 268 265 O____O___OO_O_ jtwc_sh SH141965 -23.0000 59.6000 -1 -20.3000 60.2000 4 9.90000 -23.0000 59.6000 TC 65 -23.0000 59.6000 4 -20.3000 60.2000 TC 65 17 228
1965005S11069 1965 2 SI MM FREDA 1965-01-08 09:00:00 TS -22.5077 59.1979 main 272 272 P____P___PP_P_ SH141965 -23.6296 58.9466 -1 -20.8399 59.5777 4 -23.6296 58.9466 TC 65 -23.5993 58.9408 4 -20.8399 59.5777 TC 62 16 223
1965005S11069 1965 2 SI MM FREDA 1965-01-08 12:00:00 TS -23.1111 58.6347 reunion main 305 305 O____O___OP_O_ jtwc_sh SH141965 -24.2000 58.4000 -1 -21.5000 59.0000 99 9.90000 -24.2000 58.4000 TC 65 -24.1557 58.3737 4 -21.5000 59.0000 TC 60 15 220
1965005S11069 1965 2 SI MM FREDA 1965-01-08 15:00:00 TS -23.6868 58.1197 main 357 357 P____P___PP_P_ SH141965 -24.7347 57.9191 -1 -22.1276 58.4326 99 -24.7347 57.9191 TC 65 -24.7093 57.8949 4 -22.1276 58.4326 TC 60 15 216
1965005S11069 1965 2 SI MM FREDA 1965-01-08 18:00:00 TS -24.3000 57.7000 reunion main 387 387 O____O___OO_O_ jtwc_sh SH141965 -25.3000 57.5000 -1 -22.8000 58.0000 99 9.90000 -25.3000 57.5000 TC 65 -25.3000 57.5000 4 -22.8000 58.0000 TC 60 15 208
1965005S11069 1965 2 SI MM FREDA 1965-01-08 21:00:00 TS -24.9919 57.3434 main 438 438 P____P___PP_P_ SH141965 -25.9701 57.0479 -1 -23.5273 57.7745 99 -25.9701 57.0479 TC 50 -25.9648 57.0720 4 -23.5273 57.7745 TC 55 15 201
1965005S11069 1965 2 SI MM FREDA 1965-01-09 00:00:00 TS -25.7348 57.1070 reunion main 504 504 O____O___OP_O_ jtwc_sh SH141965 -26.7000 56.7000 -1 -24.3000 57.7000 99 9.90000 -26.7000 56.7000 TC 35 -26.6739 56.7350 4 -24.3000 57.7000 TC 50 16 192
1965005S11069 1965 2 SI MM FREDA 1965-01-09 03:00:00 TS -26.5011 56.9780 main 587 587 P____P___PP_P_ SH141965 -27.4272 56.4954 -1 -25.1150 57.6845 99 -27.4272 56.4954 TC 30 -27.4210 56.5301 4 -25.1150 57.6845 TC 45 16 184
1965005S11069 1965 2 SI MM FREDA 1965-01-09 06:00:00 MX -27.2800 56.9800 reunion main 674 674 O____O___OO_O_ jtwc_sh SH141965 -28.2000 56.5000 -1 -25.9000 57.7000 5 9.90000 -28.2000 56.5000 TC 25 -28.2000 56.5000 7 -25.9000 57.7000 EX 40 16 177
1965005S11069 1965 2 SI MM FREDA 1965-01-09 09:00:00 MX -28.0459 57.0734 main 752 752 P____P___PP_P_ SH141965 -29.0425 56.7171 -1 -26.5500 57.6355 5 -29.0425 56.7171 TC 25 -29.0446 56.6620 7 -26.5500 57.6355 EX 37 16 170
1965005S11069 1965 2 SI MM FREDA 1965-01-09 12:00:00 MX -28.8219 57.2807 reunion main 844 844 O____O___OP_O_ jtwc_sh SH141965 -29.9000 57.1000 -1 -27.2000 57.6000 99 9.90000 -29.9000 57.1000 TC 25 -29.9097 57.0037 7 -27.2000 57.6000 EX 35 17 165
1965005S11069 1965 2 SI MM FREDA 1965-01-09 15:00:00 MX -29.6440 57.5727 main 937 937 P____P___PP_P_ SH141965 -30.7374 57.5200 -1 -28.0000 57.6771 99 -30.7374 57.5200 TC 25 -30.7449 57.4692 7 -28.0000 57.6771 EX 35 19 162
1965005S11069 1965 2 SI MM FREDA 1965-01-09 18:00:00 MX -30.6000 57.9333 reunion main 1052 1052 O____O___OO_O_ jtwc_sh SH141965 -31.5000 58.0000 -1 -28.8000 57.8000 99 9.90000 -31.5000 58.0000 TC 25 -31.5000 58.0000 7 -28.8000 57.8000 EX 35 20 160
1965005S11069 1965 2 SI MM FREDA 1965-01-09 21:00:00 MX -31.4828 58.3522 main 1161 1161 P____P___PP_P_ SH141965 -32.1522 58.4783 -1 -29.4875 57.9076 99 -32.1522 58.4783 TC 25 -32.1394 58.5448 7 -29.4875 57.9076 EX 35 18 154
1965005S11069 1965 2 SI MM FREDA 1965-01-10 00:00:00 MX -32.2222 58.8435 reunion main 1246 1246 O____O___OP_O_ jtwc_sh SH141965 -32.7000 59.0000 -1 -30.1000 58.0000 99 9.90000 -32.7000 59.0000 TC 25 -32.6813 59.0928 7 -30.1000 58.0000 EX 35 20 148
1965005S11069 1965 2 SI MM FREDA 1965-01-10 03:00:00 TS -33.1664 59.6023 main 1375 1375 P________PP___ SH141965 -33.1707 59.5812 -1 99 -33.1707 59.5812 TC 25 -33.1577 59.6443 7 EX 18 140
1965005S11069 1965 2 SI MM FREDA 1965-01-10 06:00:00 TS -33.6000 60.2000 main 1435 O________OO___ jtwc_sh SH141965 -33.6000 60.2000 -1 -33.6000 60.2000 TC 25 -33.6000 60.2000 7 13 131

IBTrACS Databaseについて

本データベースは、米国NOAAが公開する1842年以降の世界の熱帯低気圧のベストトラックデータアーカイブInternational Best Track Archive for Climate Stewardship (IBTrACS)を、ウェブで閲覧しやすい形式に変換したものです。

最終更新日:2021-10-27